Time;durP1;ratioP1;P1;durP2;ratioP2;P2;SDS_P1;SDS_P2;PMS_P1;PMS_P2;Temp;Humidity;BMP_temperature;BMP_pressure;BME280_temperature;BME280_humidity;BME280_pressure;Samples;Min_cycle;Max_cycle;Signal;HPM_P1;HPM_P2
2022/02/11 00:05:04;;;;;;;10.15;5.47;;;3.90;99.90;;;;;;5096907;28;20023;-66
2022/02/11 00:07:21;;;;;;;14.95;6.28;;;3.90;99.90;;;;;;5096746;28;20031;-66
2022/02/11 00:09:49;;;;;;;16.10;5.55;;;3.90;99.90;;;;;;5078840;28;20117;-66
2022/02/11 00:12:16;;;;;;;9.25;5.18;;;3.80;99.90;;;;;;5096959;28;20047;-66
2022/02/11 00:17:32;;;;;;;10.20;4.72;;;3.80;99.90;;;;;;5097499;28;20097;-66
2022/02/11 00:20:01;;;;;;;11.52;4.40;;;3.80;99.90;;;;;;5097593;28;20060;-66
2022/02/11 00:22:29;;;;;;;9.05;3.92;;;3.80;99.90;;;;;;5098263;28;20028;-66
2022/02/11 00:24:57;;;;;;;5.85;3.28;;;3.80;99.90;;;;;;5080404;28;20342;-66
2022/02/11 00:37:55;;;;;;;6.75;3.40;;;3.60;99.90;;;;;;5096475;28;20028;-66
2022/02/11 00:44:13;;;;;;;11.40;4.82;;;3.50;99.90;;;;;;5062080;28;20083;-66
2022/02/11 01:02:30;;;;;;;10.67;3.53;;;3.40;99.90;;;;;;5101720;28;20028;-65
2022/02/11 01:04:59;;;;;;;7.85;3.17;;;3.40;99.90;;;;;;5101441;28;20433;-66
2022/02/11 01:07:26;;;;;;;11.05;3.88;;;3.30;99.90;;;;;;5101773;28;20020;-66
2022/02/11 01:09:53;;;;;;;10.18;3.55;;;3.30;99.90;;;;;;5101159;28;20028;-66
2022/02/11 01:12:22;;;;;;;5.85;3.03;;;3.30;99.90;;;;;;5101621;28;20031;-66
2022/02/11 01:14:52;;;;;;;12.52;2.70;;;3.30;99.90;;;;;;5101569;28;20307;-66
2022/02/11 01:20:08;;;;;;;9.70;3.67;;;3.20;99.90;;;;;;5099939;28;20032;-66
2022/02/11 01:28:00;;;;;;;7.03;2.55;;;3.20;99.90;;;;;;5099856;28;20153;-66
2022/02/11 01:30:54;;;;;;;7.82;2.70;;;3.20;99.90;;;;;;5099808;28;20077;-66
2022/02/11 01:33:42;;;;;;;6.40;3.25;;;3.20;99.90;;;;;;5100574;28;20042;-66
2022/02/11 01:50:21;;;;;;;10.05;5.20;;;3.20;99.90;;;;;;5100432;28;20052;-66
2022/02/11 01:52:58;;;;;;;11.98;6.20;;;3.20;99.90;;;;;;5099970;28;20030;-66
2022/02/11 01:55:54;;;;;;;13.82;6.28;;;3.20;99.90;;;;;;5100620;28;20031;-66
2022/02/11 02:04:20;;;;;;;14.75;7.03;;;3.20;99.90;;;;;;5099189;28;20103;-66
2022/02/11 02:30:15;;;;;;;19.17;10.27;;;3.10;99.90;;;;;;5099545;28;20024;-66
2022/02/11 02:38:50;;;;;;;17.20;9.48;;;3.00;99.90;;;;;;5099653;28;20107;-66
2022/02/11 02:57:11;;;;;;;;;;;2.80;99.90;;;;;;5099323;28;20046;-66
2022/02/11 03:35:02;;;;;;;23.05;11.52;;;2.70;99.90;;;;;;5097435;28;20104;-66
2022/02/11 04:27:38;;;;;;;27.17;11.63;;;2.90;99.90;;;;;;5096905;28;20320;-66
2022/02/11 04:56:57;;;;;;;23.67;11.65;;;2.80;99.90;;;;;;5096568;28;20106;-66
2022/02/11 05:02:02;;;;;;;18.65;10.40;;;2.80;99.90;;;;;;5096640;28;20324;-65
2022/02/11 05:04:29;;;;;;;26.88;11.43;;;2.80;99.90;;;;;;5096831;28;20016;-66
2022/02/11 05:06:59;;;;;;;23.88;12.23;;;2.80;99.90;;;;;;5078561;28;20027;-66
2022/02/11 05:09:27;;;;;;;19.63;11.63;;;2.90;99.90;;;;;;5096742;28;20347;-66
2022/02/11 05:11:55;;;;;;;20.48;11.30;;;2.90;99.90;;;;;;5079250;28;20028;-65
2022/02/11 05:14:22;;;;;;;22.95;10.43;;;2.90;99.90;;;;;;5097656;28;20111;-65
2022/02/11 05:16:50;;;;;;;23.33;12.00;;;2.90;99.90;;;;;;5097261;28;20351;-65
2022/02/11 05:19:18;;;;;;;24.60;10.90;;;3.00;99.90;;;;;;5097499;28;20082;-65
2022/02/11 05:21:45;;;;;;;21.20;10.18;;;3.00;99.90;;;;;;5097109;28;20032;-65
2022/02/11 05:24:13;;;;;;;21.75;10.50;;;3.00;99.90;;;;;;5079300;28;20028;-65
2022/02/11 05:26:40;;;;;;;20.08;10.40;;;3.00;99.90;;;;;;5097577;28;20024;-65
2022/02/11 05:29:08;;;;;;;22.83;10.18;;;3.00;99.90;;;;;;5078757;28;20026;-65
2022/02/11 05:31:35;;;;;;;18.20;10.18;;;3.00;99.90;;;;;;5096202;28;20039;-65
2022/02/11 05:34:03;;;;;;;16.17;10.15;;;3.00;99.90;;;;;;5096553;28;20034;-66
2022/02/11 05:36:31;;;;;;;24.48;10.45;;;3.00;99.90;;;;;;5078060;28;20301;-65
2022/02/11 05:38:59;;;;;;;21.38;11.05;;;3.00;99.90;;;;;;5095676;28;20416;-66
2022/02/11 05:41:27;;;;;;;26.00;11.43;;;3.00;99.90;;;;;;5096395;28;20475;-66
2022/02/11 05:43:54;;;;;;;22.25;9.70;;;2.90;99.90;;;;;;5077990;28;20023;-65
2022/02/11 05:46:23;;;;;;;19.50;10.30;;;2.90;99.90;;;;;;5100039;28;20031;-66
2022/02/11 05:48:51;;;;;;;16.20;10.00;;;2.90;99.90;;;;;;5099412;28;20098;-65
2022/02/11 05:51:18;;;;;;;17.35;9.52;;;2.90;99.90;;;;;;5100222;28;20031;-66
2022/02/11 05:53:46;;;;;;;15.48;8.07;;;2.90;99.90;;;;;;5100847;28;20024;-65
2022/02/11 05:56:13;;;;;;;21.20;10.18;;;2.80;99.90;;;;;;5100650;28;20416;-65
2022/02/11 05:58:41;;;;;;;20.00;11.25;;;2.80;99.90;;;;;;5082903;28;20042;-65
2022/02/11 06:01:09;;;;;;;19.30;11.15;;;2.80;99.90;;;;;;5100308;28;20020;-66
2022/02/11 06:03:36;;;;;;;20.48;9.98;;;2.80;99.90;;;;;;5082183;28;20085;-65
2022/02/11 06:06:05;;;;;;;15.40;7.63;;;2.80;99.90;;;;;;5100108;28;20027;-65
2022/02/11 06:08:33;;;;;;;22.02;11.73;;;2.80;99.90;;;;;;5099941;28;20028;-65
2022/02/11 06:11:00;;;;;;;22.13;11.60;;;2.70;99.90;;;;;;5099578;28;20020;-65
2022/02/11 06:13:28;;;;;;;23.50;10.13;;;2.80;99.90;;;;;;5098932;28;20039;-65
2022/02/11 06:15:56;;;;;;;22.85;13.07;;;2.80;99.90;;;;;;5099233;28;20044;-65
2022/02/11 06:18:24;;;;;;;19.90;11.52;;;2.80;99.90;;;;;;5099387;28;20048;-65
2022/02/11 06:20:51;;;;;;;18.40;9.23;;;2.70;99.90;;;;;;5099014;28;20023;-65
2022/02/11 06:23:18;;;;;;;19.23;10.43;;;2.70;99.90;;;;;;5098786;28;20073;-65
2022/02/11 06:25:48;;;;;;;29.00;13.52;;;2.70;99.90;;;;;;5098766;28;20034;-65
2022/02/11 06:28:16;;;;;;;21.50;11.27;;;2.70;99.90;;;;;;5098713;28;20435;-65
2022/02/11 06:30:43;;;;;;;17.45;9.60;;;2.70;99.90;;;;;;5099404;28;20028;-65
2022/02/11 06:33:11;;;;;;;25.75;14.13;;;2.70;99.90;;;;;;5099548;28;20073;-65
2022/02/11 06:35:44;;;;;;;17.27;10.63;;;2.80;99.90;;;;;;5099821;28;20024;-65
2022/02/11 06:38:14;;;;;;;14.07;8.35;;;2.70;99.90;;;;;;5099091;28;20046;-68
2022/02/11 06:40:41;;;;;;;22.80;10.32;;;2.80;99.90;;;;;;5100082;28;20044;-68
2022/02/11 06:43:08;;;;;;;13.50;9.25;;;2.80;99.90;;;;;;5099440;28;20029;-67
2022/02/11 06:45:37;;;;;;;21.90;11.40;;;2.80;99.90;;;;;;5099315;28;20027;-67
2022/02/11 06:48:04;;;;;;;21.50;11.90;;;2.80;99.90;;;;;;5099254;28;20034;-67
2022/02/11 06:50:32;;;;;;;20.52;9.77;;;2.90;99.90;;;;;;5099903;28;20312;-67
2022/02/11 06:52:59;;;;;;;17.25;9.88;;;2.90;99.90;;;;;;5099215;28;20035;-67
2022/02/11 06:55:27;;;;;;;18.48;9.88;;;2.90;99.90;;;;;;5097958;28;20024;-70
2022/02/11 06:57:55;;;;;;;16.55;9.50;;;2.90;99.90;;;;;;5098724;28;20077;-69
2022/02/11 07:00:23;;;;;;;13.38;8.15;;;3.00;99.90;;;;;;5097953;28;20054;-69
2022/02/11 07:02:51;;;;;;;22.15;8.70;;;3.00;99.90;;;;;;5098091;28;20027;-69
2022/02/11 07:05:19;;;;;;;16.10;8.55;;;2.90;99.90;;;;;;5098264;28;20019;-69
2022/02/11 07:07:50;;;;;;;17.75;10.55;;;2.90;99.90;;;;;;5097988;28;20102;-70
2022/02/11 07:10:18;;;;;;;21.23;11.05;;;2.90;99.90;;;;;;5097876;28;20024;-70
2022/02/11 07:12:47;;;;;;;18.58;10.48;;;2.90;99.90;;;;;;5063257;28;20446;-69
2022/02/11 07:15:13;;;;;;;15.70;9.35;;;2.90;99.90;;;;;;5098527;28;20107;-68
2022/02/11 07:17:40;;;;;;;16.40;8.77;;;2.90;99.90;;;;;;5098782;28;20039;-69
2022/02/11 07:20:09;;;;;;;11.75;7.30;;;2.90;99.90;;;;;;5080558;28;20379;-68
2022/02/11 07:22:38;;;;;;;15.93;8.77;;;3.00;99.90;;;;;;5099164;28;20023;-68
2022/02/11 07:25:08;;;;;;;13.93;7.68;;;3.00;99.90;;;;;;5098524;28;20020;-72
2022/02/11 07:27:36;;;;;;;22.42;7.22;;;3.00;99.90;;;;;;5098658;28;20103;-66
2022/02/11 07:30:04;;;;;;;11.73;6.88;;;3.10;99.90;;;;;;5098949;28;20020;-67
2022/02/11 07:32:31;;;;;;;13.70;7.63;;;3.10;99.90;;;;;;5080391;28;20446;-67
2022/02/11 07:35:00;;;;;;;18.70;7.97;;;3.10;99.90;;;;;;5097547;28;20040;-67
2022/02/11 07:37:30;;;;;;;14.82;8.40;;;3.10;99.90;;;;;;5098099;28;20020;-69
2022/02/11 07:39:59;;;;;;;12.77;6.85;;;3.20;99.90;;;;;;5097832;28;20024;-69
2022/02/11 07:42:28;;;;;;;13.00;6.38;;;3.20;99.90;;;;;;5097282;28;20020;-70
2022/02/11 07:44:57;;;;;;;13.05;6.70;;;3.20;99.90;;;;;;5097280;28;20020;-66
2022/02/11 07:47:29;;;;;;;13.98;6.35;;;3.20;99.90;;;;;;5097064;28;20056;-67
2022/02/11 07:49:57;;;;;;;11.85;5.05;;;3.20;99.90;;;;;;5097727;28;20396;-67
2022/02/11 07:52:24;;;;;;;9.55;3.17;;;3.30;99.90;;;;;;5097716;28;20416;-66
2022/02/11 07:54:53;;;;;;;13.50;4.32;;;3.30;99.90;;;;;;5097610;28;20305;-67
2022/02/11 07:57:20;;;;;;;11.45;4.95;;;3.30;99.90;;;;;;5097812;28;20024;-67
2022/02/11 07:59:47;;;;;;;8.77;2.92;;;3.40;99.90;;;;;;5098422;28;20053;-66
2022/02/11 08:02:14;;;;;;;8.23;3.60;;;3.40;99.90;;;;;;5098393;28;20404;-66
2022/02/11 08:04:42;;;;;;;9.27;2.90;;;3.50;99.90;;;;;;5097752;28;20023;-65
2022/02/11 08:07:10;;;;;;;3.78;1.40;;;3.50;99.90;;;;;;5079346;28;20386;-64
2022/02/11 08:09:38;;;;;;;9.13;3.88;;;3.50;99.90;;;;;;5098090;28;20024;-65
2022/02/11 08:12:05;;;;;;;8.02;2.42;;;3.60;99.90;;;;;;5079850;28;20027;-65
2022/02/11 08:14:32;;;;;;;8.20;2.22;;;3.60;99.90;;;;;;5079760;28;20106;-65
2022/02/11 08:16:59;;;;;;;10.77;2.90;;;3.60;99.90;;;;;;5096815;28;20436;-64
2022/02/11 08:19:27;;;;;;;8.95;1.92;;;3.70;99.90;;;;;;5096675;28;20020;-69
2022/02/11 08:21:54;;;;;;;4.60;2.17;;;3.60;99.90;;;;;;5096967;28;20362;-68
2022/02/11 08:24:21;;;;;;;4.95;2.05;;;3.60;99.90;;;;;;5078649;28;20021;-69
2022/02/11 08:26:48;;;;;;;6.20;1.70;;;3.50;99.90;;;;;;5097373;28;20028;-68
2022/02/11 08:29:21;;;;;;;5.68;2.40;;;3.50;99.90;;;;;;5078653;28;20077;-69
2022/02/11 08:31:48;;;;;;;5.85;2.25;;;3.50;99.90;;;;;;5097060;28;20032;-66
2022/02/11 08:34:16;;;;;;;10.55;3.78;;;3.50;99.90;;;;;;5097044;28;20084;-67
2022/02/11 08:36:44;;;;;;;14.50;2.72;;;3.50;99.90;;;;;;5096530;28;20026;-67
2022/02/11 08:39:12;;;;;;;10.50;2.63;;;3.50;99.90;;;;;;5097760;28;20028;-67
2022/02/11 08:41:39;;;;;;;16.15;2.40;;;3.50;99.90;;;;;;5097663;28;20026;-65
2022/02/11 08:44:06;;;;;;;4.78;1.63;;;3.50;99.90;;;;;;5097418;28;20043;-66
2022/02/11 08:46:33;;;;;;;9.40;2.08;;;3.50;99.90;;;;;;5097362;28;20315;-66
2022/02/11 08:49:01;;;;;;;10.20;2.63;;;3.60;99.90;;;;;;5097275;28;20074;-67
2022/02/11 08:51:29;;;;;;;2.95;1.17;;;3.60;99.90;;;;;;5097462;28;20028;-66
2022/02/11 08:53:56;;;;;;;6.38;1.33;;;3.60;99.90;;;;;;5097273;28;20320;-66
2022/02/11 08:56:28;;;;;;;8.88;3.10;;;3.60;99.90;;;;;;5097177;28;20055;-65
2022/02/11 08:58:56;;;;;;;10.82;1.98;;;3.60;99.90;;;;;;5097039;28;20028;-69
2022/02/11 09:01:24;;;;;;;9.93;1.95;;;3.60;99.90;;;;;;5078483;28;20016;-68
2022/02/11 09:03:51;;;;;;;6.28;1.13;;;3.60;99.90;;;;;;5078270;28;20021;-69
2022/02/11 09:06:19;;;;;;;5.53;1.88;;;3.60;99.90;;;;;;5096224;28;20024;-69
2022/02/11 09:08:47;;;;;;;5.20;1.30;;;3.60;99.90;;;;;;5096229;28;20031;-69
2022/02/11 09:11:19;;;;;;;2.08;0.80;;;3.70;99.90;;;;;;5096910;28;20080;-68
2022/02/11 09:13:48;;;;;;;3.33;1.20;;;3.70;99.90;;;;;;5078157;28;20020;-68
2022/02/11 09:16:16;;;;;;;3.88;1.15;;;3.60;99.90;;;;;;5096244;28;20150;-67
2022/02/11 09:18:44;;;;;;;3.92;1.20;;;3.60;99.90;;;;;;5097900;28;20020;-68
2022/02/11 09:21:13;;;;;;;4.63;1.02;;;3.60;99.90;;;;;;5082878;28;20020;-67
2022/02/11 09:23:40;;;;;;;12.55;1.70;;;3.60;99.90;;;;;;5101159;28;20058;-68
2022/02/11 09:26:08;;;;;;;8.65;1.63;;;3.60;99.90;;;;;;5101434;28;20304;-67
2022/02/11 09:28:36;;;;;;;5.47;1.30;;;3.60;99.90;;;;;;5082830;28;20020;-65
2022/02/11 09:31:04;;;;;;;4.10;1.27;;;3.60;99.90;;;;;;5100959;28;20020;-68
2022/02/11 09:33:33;;;;;;;5.85;1.15;;;3.70;99.90;;;;;;5082745;28;20028;-66
2022/02/11 09:36:00;;;;;;;6.28;0.80;;;3.70;99.90;;;;;;5101247;28;20059;-66
2022/02/11 09:38:28;;;;;;;1.42;0.88;;;3.60;99.90;;;;;;5100536;28;20385;-66
2022/02/11 09:40:56;;;;;;;4.45;0.70;;;3.60;99.90;;;;;;5099962;28;20030;-66
2022/02/11 09:43:26;;;;;;;4.95;0.57;;;3.60;99.90;;;;;;5099642;28;20126;-67
2022/02/11 09:45:55;;;;;;;5.65;1.27;;;3.60;99.90;;;;;;5099495;28;20020;-67
2022/02/11 09:48:24;;;;;;;4.00;0.93;;;3.60;99.90;;;;;;5099378;28;20398;-68
2022/02/11 09:50:56;;;;;;;2.40;0.68;;;3.60;99.90;;;;;;5099642;28;20028;-72
2022/02/11 09:53:28;;;;;;;5.35;1.25;;;3.50;99.90;;;;;;5099667;28;20024;-70
2022/02/11 09:55:56;;;;;;;2.60;0.35;;;3.60;99.90;;;;;;5099370;28;20020;-66
2022/02/11 09:58:25;;;;;;;5.05;0.77;;;3.60;99.90;;;;;;5099215;28;20141;-68
2022/02/11 10:00:53;;;;;;;1.80;0.47;;;3.60;99.90;;;;;;5099359;28;20024;-68
2022/02/11 10:03:32;;;;;;;3.08;0.70;;;3.60;99.90;;;;;;5100003;28;20024;-69
2022/02/11 10:06:02;;;;;;;7.55;1.10;;;3.70;99.90;;;;;;5100155;28;20023;-68
2022/02/11 10:08:31;;;;;;;4.80;1.40;;;3.70;99.90;;;;;;5100332;28;20020;-68
2022/02/11 10:11:00;;;;;;;3.45;1.17;;;3.80;99.90;;;;;;5100198;28;20070;-68
2022/02/11 10:13:31;;;;;;;2.38;0.95;;;3.70;99.90;;;;;;5082020;28;20025;-67
2022/02/11 10:16:02;;;;;;;2.05;0.63;;;3.80;99.90;;;;;;5099796;28;20047;-68
2022/02/11 10:18:31;;;;;;;3.83;0.80;;;3.80;99.90;;;;;;5099838;28;20024;-68
2022/02/11 10:21:02;;;;;;;1.98;0.80;;;4.00;99.90;;;;;;5099994;28;20023;-68
2022/02/11 10:23:33;;;;;;;2.42;1.05;;;4.00;99.90;;;;;;5099106;28;20124;-67
2022/02/11 10:26:16;;;;;;;3.92;0.95;;;4.10;99.90;;;;;;5098891;28;20420;-66
2022/02/11 10:28:55;;;;;;;4.82;0.85;;;4.10;99.90;;;;;;5099333;28;20427;-66
2022/02/11 10:31:31;;;;;;;3.58;0.57;;;4.10;99.90;;;;;;5098013;28;20552;-67
2022/02/11 10:34:14;;;;;;;2.72;1.10;;;4.10;99.90;;;;;;5099238;28;20032;-67
2022/02/11 10:36:48;;;;;;;3.22;1.13;;;4.10;99.90;;;;;;5098250;28;20028;-66
2022/02/11 10:39:22;;;;;;;3.22;1.25;;;4.00;99.90;;;;;;5080392;28;20035;-66
2022/02/11 10:42:10;;;;;;;6.95;2.38;;;4.00;99.90;;;;;;5098588;28;20019;-66
2022/02/11 10:44:41;;;;;;;10.63;1.98;;;4.00;99.90;;;;;;5098342;28;20382;-70
2022/02/11 10:47:11;;;;;;;5.50;1.17;;;4.00;99.90;;;;;;5099390;28;20085;-69
2022/02/11 10:49:45;;;;;;;2.55;0.60;;;3.90;99.90;;;;;;5099284;28;20024;-68
2022/02/11 10:52:19;;;;;;;2.97;1.05;;;4.00;99.90;;;;;;5099342;28;20028;-68
2022/02/11 10:54:52;;;;;;;3.92;0.75;;;4.00;99.90;;;;;;5099704;28;20052;-69
2022/02/11 10:57:26;;;;;;;2.63;0.77;;;4.10;99.90;;;;;;5099621;28;20024;-66
2022/02/11 10:59:54;;;;;;;1.40;0.60;;;4.10;99.90;;;;;;5098926;28;20027;-66
2022/02/11 11:02:23;;;;;;;3.78;0.88;;;4.10;99.90;;;;;;5099628;28;20104;-66
2022/02/11 11:04:53;;;;;;;2.22;0.50;;;4.20;99.90;;;;;;5080530;28;20031;-66
2022/02/11 11:07:29;;;;;;;2.78;0.80;;;4.20;99.90;;;;;;5079945;28;20174;-69
2022/02/11 11:09:57;;;;;;;2.20;0.87;;;4.30;99.90;;;;;;5079948;28;20105;-67
2022/02/11 11:12:27;;;;;;;2.88;0.70;;;4.40;99.90;;;;;;5098071;28;20068;-67
2022/02/11 11:15:01;;;;;;;3.38;0.82;;;4.30;99.90;;;;;;5097790;28;20028;-70
2022/02/11 11:17:31;;;;;;;6.25;1.42;;;4.30;99.90;;;;;;5097623;28;20044;-70
2022/02/11 11:19:59;;;;;;;4.05;1.27;;;4.20;99.90;;;;;;5098166;28;20097;-67
2022/02/11 11:22:43;;;;;;;4.82;0.52;;;4.20;99.90;;;;;;5098059;28;20016;-66
2022/02/11 11:25:11;;;;;;;1.65;0.70;;;4.20;99.90;;;;;;5097632;28;20413;-67
2022/02/11 11:27:51;;;;;;;1.42;0.55;;;4.20;99.90;;;;;;5097944;28;20423;-67
2022/02/11 11:30:28;;;;;;;1.20;0.38;;;4.10;99.90;;;;;;5099029;28;20030;-67
2022/02/11 11:33:07;;;;;;;1.55;0.70;;;4.00;99.90;;;;;;5098409;28;20097;-67
2022/02/11 11:35:40;;;;;;;1.40;0.50;;;4.00;99.90;;;;;;5099116;28;20024;-67
2022/02/11 11:38:15;;;;;;;4.63;0.75;;;3.90;99.90;;;;;;5098891;28;20020;-67
2022/02/11 11:41:04;;;;;;;1.77;0.70;;;3.90;99.90;;;;;;5098201;28;20024;-67
2022/02/11 11:43:44;;;;;;;4.38;0.90;;;3.90;99.90;;;;;;5079365;28;20377;-67
2022/02/11 11:46:17;;;;;;;4.88;0.80;;;3.90;99.90;;;;;;5098558;28;20028;-69
2022/02/11 11:49:06;;;;;;;2.97;0.93;;;3.90;99.90;;;;;;5097986;28;20023;-68
2022/02/11 11:51:37;;;;;;;2.75;1.08;;;3.90;99.90;;;;;;5079041;28;20323;-69
2022/02/11 11:54:23;;;;;;;2.13;0.43;;;4.00;99.90;;;;;;5097686;28;20020;-70
2022/02/11 11:57:03;;;;;;;4.30;0.75;;;4.00;99.90;;;;;;5097809;28;20015;-69
2022/02/11 11:59:37;;;;;;;2.08;0.70;;;4.10;99.90;;;;;;5097511;28;20048;-69
2022/02/11 12:02:05;;;;;;;6.80;0.73;;;4.10;99.90;;;;;;5097042;28;20138;-68
2022/02/11 12:04:42;;;;;;;2.58;0.70;;;4.10;99.90;;;;;;5078962;28;20024;-69
2022/02/11 12:07:15;;;;;;;7.22;0.93;;;4.10;99.90;;;;;;5097440;28;20024;-69
2022/02/11 12:09:48;;;;;;;2.45;1.20;;;4.10;99.90;;;;;;5097390;28;20411;-69
2022/02/11 12:12:19;;;;;;;6.13;0.60;;;4.10;99.90;;;;;;5097608;28;20168;-69
2022/02/11 12:14:48;;;;;;;2.88;0.70;;;4.10;99.90;;;;;;5098319;28;20050;-68
2022/02/11 12:17:17;;;;;;;1.80;1.40;;;4.00;99.90;;;;;;5097813;28;20485;-68
2022/02/11 12:19:46;;;;;;;3.75;0.70;;;4.00;99.90;;;;;;5097671;28;20446;-69
2022/02/11 12:22:15;;;;;;;3.42;0.95;;;4.10;99.90;;;;;;5098358;28;20371;-69
2022/02/11 12:27:46;;;;;;;2.83;0.60;;;4.00;99.90;;;;;;5097927;28;20077;-67
2022/02/11 12:30:14;;;;;;;1.50;0.60;;;4.10;99.90;;;;;;5097007;28;20020;-67
2022/02/11 12:32:53;;;;;;;1.67;0.85;;;4.10;99.90;;;;;;5096655;28;20165;-67
2022/02/11 12:35:29;;;;;;;1.25;0.50;;;4.10;99.90;;;;;;5096478;28;20082;-66
2022/02/11 12:38:02;;;;;;;1.85;0.80;;;4.10;99.90;;;;;;5097167;28;20146;-67
2022/02/11 12:40:35;;;;;;;1.77;0.60;;;4.10;99.90;;;;;;5096543;28;20089;-66
2022/02/11 12:43:05;;;;;;;1.65;0.52;;;4.10;99.90;;;;;;5078609;28;20442;-67
2022/02/11 12:45:36;;;;;;;3.33;0.70;;;4.20;99.90;;;;;;5097404;28;20055;-67
2022/02/11 12:48:09;;;;;;;4.70;0.60;;;4.20;99.90;;;;;;5079507;28;20357;-66
2022/02/11 12:50:40;;;;;;;3.42;0.60;;;4.20;99.90;;;;;;5097587;28;20024;-71
2022/02/11 12:53:11;;;;;;;13.25;2.03;;;4.20;99.90;;;;;;5097644;28;20024;-67
2022/02/11 12:55:39;;;;;;;4.07;0.80;;;4.10;99.90;;;;;;5083541;28;20038;-67
2022/02/11 12:58:09;;;;;;;1.48;0.45;;;4.10;99.90;;;;;;5083464;28;20110;-68
2022/02/11 13:00:39;;;;;;;0.98;0.20;;;4.00;99.90;;;;;;5101534;28;20020;-69
2022/02/11 13:03:07;;;;;;;2.08;0.30;;;4.00;99.90;;;;;;5083298;28;20024;-68
2022/02/11 13:05:42;;;;;;;0.55;0.25;;;4.00;99.90;;;;;;5100366;28;20024;-67
2022/02/11 13:08:11;;;;;;;2.42;0.32;;;3.90;99.90;;;;;;5100122;28;20020;-69
2022/02/11 13:10:39;;;;;;;0.88;0.38;;;3.90;99.90;;;;;;5100422;28;20371;-71
2022/02/11 13:13:18;;;;;;;0.35;0.17;;;3.80;99.90;;;;;;5100764;28;20020;-71
2022/02/11 13:15:46;;;;;;;0.50;0.20;;;3.80;99.90;;;;;;5100033;28;20047;-69
2022/02/11 13:18:18;;;;;;;0.90;0.45;;;3.80;99.90;;;;;;5100683;28;20043;-70
2022/02/11 13:20:52;;;;;;;0.85;0.25;;;3.70;99.90;;;;;;5099904;28;20024;-70
2022/02/11 13:23:23;;;;;;;0.77;0.20;;;3.70;99.90;;;;;;5099945;28;20099;-68
2022/02/11 13:25:51;;;;;;;1.33;0.40;;;3.70;99.90;;;;;;5100292;28;20420;-68
2022/02/11 13:28:20;;;;;;;2.58;0.63;;;3.60;99.90;;;;;;5101184;28;20027;-67
2022/02/11 13:30:57;;;;;;;5.68;0.85;;;3.60;99.90;;;;;;5101054;28;20035;-68
2022/02/11 13:33:28;;;;;;;;;;;3.50;99.90;;;;;;5083278;28;20059;-68
2022/02/11 13:36:08;;;;;;;2.75;0.55;;;3.50;99.90;;;;;;5082830;28;20190;-67
2022/02/11 13:38:41;;;;;;;7.07;1.92;;;3.50;99.90;;;;;;5100665;28;20020;-68
2022/02/11 13:41:10;;;;;;;2.90;1.50;;;3.50;99.90;;;;;;5100832;28;20355;-68
2022/02/11 13:44:01;;;;;;;3.20;0.57;;;3.50;99.90;;;;;;5083418;28;20312;-68
2022/02/11 13:46:34;;;;;;;0.95;0.45;;;3.50;99.90;;;;;;5099784;28;20024;-68
2022/02/11 13:49:06;;;;;;;1.35;0.60;;;3.60;99.90;;;;;;5100242;28;20074;-68
2022/02/11 13:51:34;;;;;;;2.10;0.65;;;3.60;99.90;;;;;;5099628;28;20023;-68
2022/02/11 13:54:22;;;;;;;3.78;1.35;;;3.60;99.90;;;;;;5099540;28;20024;-67
2022/02/11 13:56:51;;;;;;;1.75;0.60;;;3.60;99.90;;;;;;5099938;28;20423;-68
2022/02/11 13:59:27;;;;;;;2.03;0.57;;;3.60;99.90;;;;;;5099935;28;20399;-67
2022/02/11 14:02:06;;;;;;;1.73;0.70;;;3.50;99.90;;;;;;5100014;28;20012;-68
2022/02/11 14:04:33;;;;;;;1.80;0.70;;;3.50;99.90;;;;;;5098754;28;20323;-67
2022/02/11 14:07:09;;;;;;;3.58;0.50;;;3.40;99.90;;;;;;5081763;28;20024;-67
2022/02/11 14:09:38;;;;;;;4.07;1.00;;;3.40;99.90;;;;;;5100508;28;20016;-68
2022/02/11 14:12:27;;;;;;;5.55;0.75;;;3.30;99.90;;;;;;5082231;28;20427;-67
2022/02/11 14:14:57;;;;;;;4.72;0.80;;;3.30;99.90;;;;;;5100326;28;20101;-67
2022/02/11 14:17:29;;;;;;;4.85;1.15;;;3.20;99.90;;;;;;5078707;28;20460;-67
2022/02/11 14:19:57;;;;;;;5.80;1.20;;;3.20;99.90;;;;;;5079953;28;20056;-67
2022/02/11 14:22:25;;;;;;;1.80;0.57;;;3.20;99.90;;;;;;5078760;28;20020;-67
2022/02/11 14:24:53;;;;;;;5.05;1.27;;;3.20;99.90;;;;;;5079624;28;20021;-67
2022/02/11 14:27:20;;;;;;;9.10;1.20;;;3.20;99.90;;;;;;5079379;28;20139;-67
2022/02/11 14:29:48;;;;;;;5.55;0.70;;;3.20;99.90;;;;;;5078592;28;20033;-67
2022/02/11 14:32:16;;;;;;;6.95;1.48;;;3.20;99.90;;;;;;5077703;28;20020;-67
2022/02/11 14:34:45;;;;;;;3.03;1.00;;;3.20;99.90;;;;;;5078154;28;20096;-67
2022/02/11 14:37:12;;;;;;;9.57;2.05;;;3.20;99.90;;;;;;5078497;28;20021;-67
2022/02/11 14:39:40;;;;;;;7.65;1.00;;;3.30;99.90;;;;;;5078894;28;20376;-67
2022/02/11 14:42:07;;;;;;;12.75;1.70;;;3.30;99.90;;;;;;5077321;28;20048;-67
2022/02/11 14:44:38;;;;;;;3.90;1.10;;;3.30;99.90;;;;;;5078341;28;20412;-68
2022/02/11 14:47:08;;;;;;;5.45;1.20;;;3.30;99.90;;;;;;5079137;28;20108;-67
2022/02/11 14:49:38;;;;;;;7.43;1.30;;;3.40;99.90;;;;;;5079236;28;20029;-67
2022/02/11 14:52:08;;;;;;;6.47;1.02;;;3.40;99.90;;;;;;5079238;28;20083;-67
2022/02/11 14:54:37;;;;;;;11.45;1.55;;;3.40;99.90;;;;;;5079311;28;20083;-67
2022/02/11 14:57:07;;;;;;;7.65;1.33;;;3.40;99.90;;;;;;5078915;28;20424;-68
2022/02/11 14:59:35;;;;;;;6.53;1.48;;;3.40;99.90;;;;;;5079225;28;20431;-67
2022/02/11 15:02:06;;;;;;;8.05;1.17;;;3.40;99.90;;;;;;5078947;28;20081;-67
2022/02/11 15:04:34;;;;;;;6.15;1.65;;;3.50;99.90;;;;;;5078710;28;20028;-67
2022/02/11 15:07:03;;;;;;;9.63;1.63;;;3.50;99.90;;;;;;5077368;28;20420;-70
2022/02/11 15:09:30;;;;;;;12.45;2.35;;;3.50;99.90;;;;;;5078276;28;20029;-70
2022/02/11 15:11:59;;;;;;;10.82;1.88;;;3.50;99.90;;;;;;5076761;28;20030;-70
2022/02/11 15:14:29;;;;;;;6.78;1.48;;;3.50;99.90;;;;;;5078172;28;20025;-69
2022/02/11 15:16:57;;;;;;;6.97;1.50;;;3.50;99.90;;;;;;5091271;28;20097;-69
2022/02/11 15:19:25;;;;;;;9.52;1.40;;;3.50;99.90;;;;;;5097668;28;20122;-69
2022/02/11 15:21:53;;;;;;;5.85;1.00;;;3.40;99.90;;;;;;5097883;28;20412;-69
2022/02/11 15:24:26;;;;;;;5.80;0.75;;;3.30;99.90;;;;;;5080118;28;20097;-69
2022/02/11 15:26:55;;;;;;;1.23;0.52;;;3.30;99.90;;;;;;5097744;28;20016;-69
2022/02/11 15:29:23;;;;;;;5.25;1.20;;;3.20;99.90;;;;;;5097730;28;20024;-67
2022/02/11 15:31:52;;;;;;;12.82;2.08;;;3.00;99.90;;;;;;5099041;28;20032;-76
2022/02/11 15:34:19;;;;;;;36.70;9.90;;;2.90;99.90;;;;;;5098516;28;20084;-74
2022/02/11 15:36:47;;;;;;;11.25;1.75;;;2.80;99.90;;;;;;5098494;28;20062;-74
2022/02/11 15:39:14;;;;;;;9.38;1.55;;;2.80;99.90;;;;;;5098598;28;20024;-75
2022/02/11 15:41:42;;;;;;;5.72;1.42;;;2.80;99.90;;;;;;5098545;28;20472;-76
2022/02/11 15:44:13;;;;;;;7.57;1.42;;;2.80;99.90;;;;;;5098547;28;20315;-74
2022/02/11 15:46:53;;;;;;;9.77;1.50;;;2.80;99.90;;;;;;5098057;28;20028;-74
2022/02/11 15:49:20;;;;;;;11.00;1.70;;;2.80;99.90;;;;;;5098072;28;20020;-74
2022/02/11 15:51:48;;;;;;;12.60;1.10;;;2.80;99.90;;;;;;5080658;28;20019;-73
2022/02/11 15:54:25;;;;;;;13.32;1.65;;;2.80;99.90;;;;;;5098159;28;20354;-73
2022/02/11 15:56:52;;;;;;;6.15;1.92;;;2.80;99.90;;;;;;5098405;28;20031;-73
2022/02/11 15:59:21;;;;;;;6.65;1.40;;;2.80;99.90;;;;;;5079277;28;20420;-77
2022/02/11 16:01:51;;;;;;;6.13;0.93;;;2.80;99.90;;;;;;5098549;28;20031;-75
2022/02/11 16:04:19;;;;;;;9.38;1.60;;;2.80;99.90;;;;;;5098147;28;20038;-73
2022/02/11 16:06:46;;;;;;;5.28;1.42;;;2.80;99.90;;;;;;5080089;28;20020;-76
2022/02/11 16:09:14;;;;;;;6.90;0.85;;;2.80;99.90;;;;;;5098421;28;20024;-76
2022/02/11 16:11:42;;;;;;;8.82;1.10;;;2.70;99.90;;;;;;5098893;28;20331;-74
2022/02/11 16:14:15;;;;;;;2.22;0.93;;;2.70;99.90;;;;;;5097840;28;20024;-75
2022/02/11 16:17:00;;;;;;;6.68;1.55;;;2.60;99.90;;;;;;5078277;28;20396;-74
2022/02/11 16:19:28;;;;;;;8.85;1.20;;;2.50;99.90;;;;;;5098493;28;20047;-75
2022/02/11 16:21:56;;;;;;;5.28;1.23;;;2.50;99.90;;;;;;5098041;28;20415;-75
2022/02/11 16:24:23;;;;;;;9.88;1.58;;;2.40;99.90;;;;;;5097963;28;20016;-75
2022/02/11 16:26:51;;;;;;;9.15;1.52;;;2.30;99.90;;;;;;5097782;28;20017;-76
2022/02/11 16:29:18;;;;;;;4.60;0.95;;;2.30;99.90;;;;;;5097055;28;20020;-75
2022/02/11 16:31:49;;;;;;;5.00;1.00;;;2.30;99.90;;;;;;5079738;28;20062;-75
2022/02/11 16:34:18;;;;;;;11.18;2.35;;;2.20;99.90;;;;;;5097425;28;20535;-75
2022/02/11 16:37:02;;;;;;;6.90;1.17;;;2.20;99.90;;;;;;5062669;28;20036;-75
2022/02/11 16:39:30;;;;;;;18.10;3.53;;;2.20;99.90;;;;;;5097377;28;20052;-75
2022/02/11 16:41:58;;;;;;;14.38;4.00;;;2.20;99.90;;;;;;5079641;28;20023;-82
2022/02/11 16:44:26;;;;;;;4.18;1.27;;;2.20;99.90;;;;;;5097780;28;20020;-74
2022/02/11 16:46:53;;;;;;;23.67;8.63;;;2.20;99.90;;;;;;5097573;28;20017;-74
2022/02/11 16:49:20;;;;;;;10.10;1.80;;;2.10;99.90;;;;;;5097878;28;20435;-74
2022/02/11 16:51:48;;;;;;;21.55;4.95;;;2.10;99.90;;;;;;5097402;28;20020;-73
2022/02/11 16:54:16;;;;;;;11.13;4.10;;;2.00;99.90;;;;;;5097872;28;20307;-74
2022/02/11 16:56:43;;;;;;;16.60;6.15;;;2.00;99.90;;;;;;5079333;28;20123;-74